createdAt,value
2017-07-02T00:02:20.149Z,15.10
2017-07-02T00:04:47.754Z,15.00
2017-07-02T00:07:15.371Z,15.00
2017-07-02T00:09:42.968Z,15.00
2017-07-02T00:12:10.571Z,15.00
2017-07-02T00:14:38.147Z,15.00
2017-07-02T00:17:05.702Z,15.00
2017-07-02T00:19:34.847Z,14.90
2017-07-02T00:22:02.673Z,14.90
2017-07-02T00:24:30.243Z,14.90
2017-07-02T00:26:57.843Z,14.90
2017-07-02T00:29:25.417Z,14.90
2017-07-02T00:31:52.971Z,14.90
2017-07-02T00:34:20.676Z,14.90
2017-07-02T00:36:48.242Z,14.90
2017-07-02T00:39:15.844Z,14.90
2017-07-02T00:41:44.191Z,14.70
2017-07-02T00:44:11.754Z,14.70
2017-07-02T00:46:39.404Z,14.70
2017-07-02T00:49:06.961Z,14.70
2017-07-02T00:51:34.678Z,14.60
2017-07-02T00:54:02.282Z,14.50
2017-07-02T00:56:29.855Z,14.50
2017-07-02T00:58:57.468Z,14.40
2017-07-02T01:01:25.057Z,14.50
2017-07-02T01:03:52.635Z,14.50
2017-07-02T01:06:20.202Z,14.50
2017-07-02T01:08:47.817Z,14.50
2017-07-02T01:11:15.395Z,14.60
2017-07-02T01:13:43.007Z,14.60
2017-07-02T01:16:10.593Z,14.60
2017-07-02T01:18:38.930Z,14.50
2017-07-02T01:21:06.518Z,14.50
2017-07-02T01:23:34.988Z,14.40
2017-07-02T01:26:02.575Z,14.40
2017-07-02T01:28:30.937Z,14.20
2017-07-02T01:30:58.490Z,14.20
2017-07-02T01:33:26.099Z,14.10
2017-07-02T01:35:53.774Z,14.10
2017-07-02T01:38:21.353Z,14.00
2017-07-02T01:40:48.938Z,13.90
2017-07-02T01:43:16.523Z,14.00
2017-07-02T01:45:44.855Z,14.00
2017-07-02T01:48:12.430Z,13.90
2017-07-02T01:50:40.026Z,13.90
2017-07-02T01:53:08.418Z,13.80
2017-07-02T01:55:35.972Z,13.80
2017-07-02T01:58:04.323Z,13.60
2017-07-02T02:03:42.883Z,13.60
2017-07-02T02:06:11.226Z,13.50
2017-07-02T02:08:38.794Z,13.40
2017-07-02T02:11:06.474Z,13.50
2017-07-02T02:13:34.034Z,13.50
2017-07-02T02:16:01.626Z,13.50
2017-07-02T02:18:29.983Z,13.50
2017-07-02T02:20:57.543Z,13.50
2017-07-02T02:23:25.120Z,13.60
2017-07-02T02:25:53.458Z,13.70
2017-07-02T02:28:21.034Z,13.70
2017-07-02T02:30:48.603Z,13.70
2017-07-02T02:33:16.171Z,13.80
2017-07-02T02:35:43.747Z,13.80
2017-07-02T02:38:11.373Z,13.90
2017-07-02T02:40:38.941Z,13.80
2017-07-02T02:43:06.526Z,13.70
2017-07-02T02:45:34.873Z,13.50
2017-07-02T02:48:02.422Z,13.50
2017-07-02T02:50:30.030Z,13.40
2017-07-02T02:52:58.367Z,13.20
2017-07-02T02:55:25.922Z,13.20
2017-07-02T02:57:53.611Z,13.10
2017-07-02T03:00:21.186Z,13.10
2017-07-02T03:02:48.751Z,13.20
2017-07-02T03:05:16.372Z,13.40
2017-07-02T03:07:44.030Z,13.50
2017-07-02T03:10:11.678Z,13.60
2017-07-02T03:12:39.241Z,13.70
2017-07-02T03:15:06.821Z,13.70
2017-07-02T03:17:34.423Z,13.60
2017-07-02T03:20:01.980Z,13.70
2017-07-02T03:22:29.564Z,13.70
2017-07-02T03:24:57.902Z,13.70
2017-07-02T03:27:25.476Z,13.70
2017-07-02T03:29:53.069Z,13.70
2017-07-02T03:32:21.397Z,13.80
2017-07-02T03:34:48.974Z,13.70
2017-07-02T03:37:16.565Z,13.80
2017-07-02T03:39:44.919Z,13.90
2017-07-02T03:42:12.485Z,13.90
2017-07-02T03:44:40.047Z,13.90
2017-07-02T03:47:07.974Z,13.90
2017-07-02T03:49:35.806Z,13.90
2017-07-02T03:52:04.146Z,14.00
2017-07-02T03:54:31.739Z,14.00
2017-07-02T03:56:59.318Z,14.00
2017-07-02T03:59:26.942Z,14.10
2017-07-02T04:01:54.515Z,14.20
2017-07-02T04:04:22.083Z,14.20
2017-07-02T04:06:49.668Z,14.20
2017-07-02T04:09:17.461Z,14.30
2017-07-02T04:11:45.020Z,14.30
2017-07-02T04:14:12.587Z,14.40
2017-07-02T04:16:40.168Z,14.40
2017-07-02T04:19:07.729Z,14.40
2017-07-02T04:21:35.321Z,14.40
2017-07-02T04:24:02.882Z,14.40
2017-07-02T04:26:30.465Z,14.40
2017-07-02T04:28:58.783Z,14.50
2017-07-02T04:31:26.344Z,14.50
2017-07-02T04:33:54.186Z,14.60
2017-07-02T04:36:21.867Z,14.60
2017-07-02T04:38:49.527Z,14.60
2017-07-02T04:41:18.014Z,14.70
2017-07-02T04:43:45.589Z,14.70
2017-07-02T04:46:13.183Z,14.80
2017-07-02T04:48:40.748Z,14.90
2017-07-02T04:51:08.314Z,14.90
2017-07-02T04:53:36.023Z,15.00
2017-07-02T04:56:03.601Z,15.00
2017-07-02T04:58:31.191Z,15.00
2017-07-02T05:00:58.812Z,15.10
2017-07-02T05:03:26.395Z,15.10
2017-07-02T05:05:53.949Z,15.20
2017-07-02T05:08:21.510Z,15.20
2017-07-02T05:10:49.087Z,15.30
2017-07-02T05:13:16.651Z,15.30
2017-07-02T05:15:44.362Z,15.30
2017-07-02T05:18:11.925Z,15.40
2017-07-02T05:20:39.506Z,15.40
2017-07-02T05:23:07.099Z,15.40
2017-07-02T05:25:34.669Z,15.30
2017-07-02T05:28:02.243Z,15.40
2017-07-02T05:30:29.852Z,15.50
2017-07-02T05:32:57.429Z,15.60
2017-07-02T05:35:25.186Z,15.70
2017-07-02T05:37:52.750Z,15.80
2017-07-02T05:40:20.334Z,15.70
2017-07-02T05:42:47.887Z,15.70
2017-07-02T05:45:15.463Z,15.70
2017-07-02T05:47:43.587Z,15.80
2017-07-02T05:50:11.153Z,15.80
2017-07-02T05:52:38.776Z,15.90
2017-07-02T05:55:06.479Z,15.90
2017-07-02T05:57:34.071Z,15.90
2017-07-02T06:00:01.659Z,16.00
2017-07-02T06:02:29.313Z,15.90
2017-07-02T06:04:56.948Z,15.90
2017-07-02T06:07:24.747Z,15.90
2017-07-02T06:09:52.322Z,15.90
2017-07-02T06:12:19.881Z,15.90
2017-07-02T06:14:47.559Z,15.90
2017-07-02T06:17:16.069Z,16.00
2017-07-02T06:19:43.675Z,16.00
2017-07-02T06:22:11.219Z,16.10
2017-07-02T06:24:38.826Z,16.20
2017-07-02T06:27:07.207Z,16.30
2017-07-02T06:29:34.821Z,16.30
2017-07-02T06:32:02.379Z,16.40
2017-07-02T06:34:29.958Z,16.50
2017-07-02T06:36:57.722Z,16.60
2017-07-02T06:39:25.368Z,16.60
2017-07-02T06:41:53.043Z,16.70
2017-07-02T06:44:20.631Z,16.80
2017-07-02T06:46:48.225Z,16.80
2017-07-02T06:49:17.122Z,17.00
2017-07-02T06:51:44.718Z,17.00
2017-07-02T06:54:12.286Z,17.30
2017-07-02T06:56:39.863Z,17.70
2017-07-02T06:59:07.475Z,18.10
2017-07-02T07:01:35.794Z,18.60
2017-07-02T07:04:03.357Z,18.60
2017-07-02T07:06:30.926Z,18.60
2017-07-02T07:08:58.490Z,18.60
2017-07-02T07:11:26.053Z,18.30
2017-07-02T07:13:53.670Z,18.10
2017-07-02T07:16:21.254Z,18.00
2017-07-02T07:18:48.959Z,17.90
2017-07-02T07:21:16.843Z,18.10
2017-07-02T07:23:45.313Z,18.40
2017-07-02T07:26:12.926Z,18.30
2017-07-02T07:28:40.665Z,18.50
2017-07-02T07:31:08.369Z,18.50
2017-07-02T07:33:35.939Z,18.60
2017-07-02T07:36:03.582Z,18.50
2017-07-02T07:38:31.401Z,18.70
2017-07-02T07:40:59.010Z,18.80
2017-07-02T07:43:26.651Z,18.70
2017-07-02T07:45:55.002Z,18.90
2017-07-02T07:48:22.574Z,18.90
2017-07-02T07:50:50.926Z,19.50
2017-07-02T07:53:18.486Z,19.40
2017-07-02T07:55:46.134Z,19.90
2017-07-02T07:58:13.720Z,20.20
2017-07-02T08:00:41.345Z,20.70
2017-07-02T08:03:08.944Z,21.00
2017-07-02T08:05:36.520Z,21.20
2017-07-02T08:08:04.075Z,20.80
2017-07-02T08:10:31.658Z,20.30
2017-07-02T08:13:00.366Z,20.30
2017-07-02T08:15:27.935Z,20.30
2017-07-02T08:17:55.503Z,20.30
2017-07-02T08:20:23.109Z,20.30
2017-07-02T08:22:50.749Z,20.10
2017-07-02T08:25:18.500Z,19.60
2017-07-02T08:27:46.099Z,19.10
2017-07-02T08:30:14.324Z,18.60
2017-07-02T08:32:41.940Z,18.30
2017-07-02T08:35:09.529Z,18.20
2017-07-02T08:37:37.883Z,18.70
2017-07-02T08:40:05.515Z,18.70
2017-07-02T08:42:33.079Z,19.00
2017-07-02T08:45:00.669Z,19.50
2017-07-02T08:47:28.243Z,19.80
2017-07-02T08:49:55.834Z,20.30
2017-07-02T08:52:24.829Z,20.40
2017-07-02T08:54:52.406Z,20.40
2017-07-02T08:57:19.995Z,20.80
2017-07-02T08:59:47.567Z,21.20
2017-07-02T09:02:15.316Z,21.10
2017-07-02T09:04:42.895Z,21.10
2017-07-02T09:07:10.633Z,20.90
2017-07-02T09:09:38.202Z,20.60
2017-07-02T09:12:05.803Z,20.00
2017-07-02T09:14:33.382Z,19.90
2017-07-02T09:17:01.939Z,19.40
2017-07-02T09:19:29.530Z,19.40
2017-07-02T09:21:58.068Z,19.30
2017-07-02T09:24:25.680Z,19.30
2017-07-02T09:26:54.004Z,19.40
2017-07-02T09:29:21.681Z,19.40
2017-07-02T09:31:49.271Z,19.50
2017-07-02T09:34:16.841Z,19.80
2017-07-02T09:36:45.178Z,21.00
2017-07-02T09:39:12.918Z,21.00
2017-07-02T09:41:40.506Z,21.60
2017-07-02T09:44:08.134Z,21.80
2017-07-02T09:46:35.697Z,21.70
2017-07-02T09:49:03.396Z,21.50
2017-07-02T09:51:30.974Z,20.90
2017-07-02T09:53:58.568Z,20.50
2017-07-02T09:56:26.976Z,19.90
2017-07-02T09:58:54.608Z,19.90
2017-07-02T10:01:22.271Z,20.00
2017-07-02T10:03:49.917Z,20.10
2017-07-02T10:06:17.586Z,20.10
2017-07-02T10:08:45.163Z,20.10
2017-07-02T10:11:12.841Z,19.90
2017-07-02T10:13:41.295Z,19.60
2017-07-02T10:16:08.880Z,19.60
2017-07-02T10:18:37.215Z,19.80
2017-07-02T10:21:04.804Z,19.80
2017-07-02T10:23:32.385Z,20.00
2017-07-02T10:26:00.800Z,20.80
2017-07-02T10:28:28.367Z,20.80
2017-07-02T10:30:56.027Z,21.10
2017-07-02T10:33:23.675Z,21.20
2017-07-02T10:35:51.355Z,21.30
2017-07-02T10:38:19.077Z,21.40
2017-07-02T10:40:46.642Z,21.40
2017-07-02T10:43:15.010Z,21.30
2017-07-02T10:45:42.582Z,21.30
2017-07-02T10:48:10.930Z,21.30
2017-07-02T10:50:38.530Z,21.30
2017-07-02T10:53:06.860Z,21.60
2017-07-02T10:55:34.423Z,21.60
2017-07-02T10:58:01.991Z,21.30
2017-07-02T11:00:30.449Z,21.10
2017-07-02T11:02:58.056Z,21.10
2017-07-02T11:05:25.817Z,20.90
2017-07-02T11:07:53.409Z,20.80
2017-07-02T11:10:21.836Z,20.20
2017-07-02T11:12:49.423Z,20.20
2017-07-02T11:15:17.017Z,20.00
2017-07-02T11:17:45.382Z,20.20
2017-07-02T11:20:12.955Z,20.10
2017-07-02T11:22:41.406Z,20.50
2017-07-02T11:25:08.995Z,20.50
2017-07-02T11:27:37.354Z,20.60
2017-07-02T11:30:04.931Z,20.60
2017-07-02T11:32:32.690Z,20.50
2017-07-02T11:35:00.278Z,20.40
2017-07-02T11:37:28.614Z,20.20
2017-07-02T11:39:56.269Z,20.20
2017-07-02T11:42:24.014Z,20.20
2017-07-02T11:44:51.803Z,20.20
2017-07-02T11:47:19.386Z,19.80
2017-07-02T11:49:46.994Z,19.70
2017-07-02T11:52:15.331Z,20.00
2017-07-02T11:54:42.903Z,20.00
2017-07-02T11:57:10.469Z,20.30
2017-07-02T11:59:38.078Z,20.60
2017-07-02T12:02:05.679Z,21.00
2017-07-02T12:04:33.308Z,21.30
2017-07-02T12:07:00.879Z,21.30
2017-07-02T12:09:28.464Z,21.10
2017-07-02T12:11:56.026Z,20.70
2017-07-02T12:14:23.631Z,20.40
2017-07-02T12:16:51.979Z,20.10
2017-07-02T12:19:19.570Z,20.10
2017-07-02T12:21:47.928Z,19.80
2017-07-02T12:24:15.501Z,19.80
2017-07-02T12:26:43.846Z,19.50
2017-07-02T12:29:11.784Z,19.40
2017-07-02T12:31:39.343Z,19.40
2017-07-02T12:34:06.924Z,19.30
2017-07-02T12:36:34.481Z,19.20
2017-07-02T12:39:02.043Z,19.30
2017-07-02T12:41:29.703Z,19.50
2017-07-02T12:43:57.401Z,19.70
2017-07-02T12:46:25.033Z,19.80
2017-07-02T12:48:52.602Z,20.00
2017-07-02T12:51:20.189Z,20.00
2017-07-02T12:53:47.782Z,19.90
2017-07-02T12:56:16.152Z,19.80
2017-07-02T12:58:43.741Z,19.80
2017-07-02T13:01:11.332Z,19.70
2017-07-02T13:03:38.895Z,19.50
2017-07-02T13:06:06.551Z,19.30
2017-07-02T13:08:34.152Z,19.20
2017-07-02T13:11:01.781Z,19.10
2017-07-02T13:13:29.428Z,19.20
2017-07-02T13:15:57.026Z,19.20
2017-07-02T13:18:24.622Z,19.20
2017-07-02T13:20:52.948Z,19.20
2017-07-02T13:23:20.563Z,19.20
2017-07-02T13:25:48.137Z,19.10
2017-07-02T13:28:16.489Z,19.00
2017-07-02T13:30:44.220Z,19.00
2017-07-02T13:33:11.884Z,18.90
2017-07-02T13:35:39.457Z,18.70
2017-07-02T13:38:07.095Z,18.70
2017-07-02T13:40:34.684Z,18.60
2017-07-02T13:43:02.262Z,18.40
2017-07-02T13:45:29.830Z,18.40
2017-07-02T13:47:57.406Z,18.30
2017-07-02T13:50:24.991Z,18.30
2017-07-02T13:52:53.407Z,18.30
2017-07-02T13:55:21.010Z,18.30
2017-07-02T13:57:48.582Z,18.20
2017-07-02T14:00:16.962Z,18.00
2017-07-02T14:02:45.305Z,17.90
2017-07-02T14:05:12.898Z,17.90
2017-07-02T14:07:40.514Z,17.80
2017-07-02T14:10:08.082Z,18.00
2017-07-02T14:12:35.735Z,18.10
2017-07-02T14:15:03.304Z,18.40
2017-07-02T14:17:30.944Z,18.60
2017-07-02T14:19:58.509Z,18.60
2017-07-02T14:22:26.085Z,18.70
2017-07-02T14:24:53.680Z,19.00
2017-07-02T14:27:21.243Z,19.40
2017-07-02T14:29:48.841Z,20.00
2017-07-02T14:32:16.493Z,20.40
2017-07-02T14:34:44.067Z,20.80
2017-07-02T14:37:12.523Z,22.60
2017-07-02T14:39:40.099Z,22.60
2017-07-02T14:42:08.455Z,21.90
2017-07-02T14:44:36.078Z,21.80
2017-07-02T14:47:03.650Z,21.40
2017-07-02T14:49:31.231Z,21.10
2017-07-02T14:51:58.867Z,20.90
2017-07-02T14:54:26.436Z,20.60
2017-07-02T14:56:54.067Z,20.80
2017-07-02T14:59:22.425Z,22.50
2017-07-02T15:01:50.001Z,22.50
2017-07-02T15:04:18.335Z,23.00
2017-07-02T15:06:46.011Z,23.00
2017-07-02T15:09:13.575Z,23.20
2017-07-02T15:11:41.181Z,22.80
2017-07-02T15:14:09.506Z,22.10
2017-07-02T15:16:37.083Z,22.20
2017-07-02T15:19:04.692Z,22.40
2017-07-02T15:21:32.254Z,23.00
2017-07-02T15:24:00.611Z,23.40
2017-07-02T15:26:28.204Z,23.40
2017-07-02T15:28:55.825Z,23.60
2017-07-02T15:31:23.412Z,23.30
2017-07-02T15:33:51.991Z,23.50
2017-07-02T15:36:19.595Z,23.50
2017-07-02T15:38:47.460Z,23.20
2017-07-02T15:41:15.058Z,22.80
2017-07-02T15:43:42.753Z,22.50
2017-07-02T15:46:11.112Z,22.50
2017-07-02T15:48:38.728Z,22.50
2017-07-02T15:51:06.348Z,22.60
2017-07-02T15:53:34.022Z,22.70
2017-07-02T15:56:01.617Z,22.50
2017-07-02T15:58:29.206Z,22.60
2017-07-02T16:00:56.811Z,22.80
2017-07-02T16:03:24.435Z,22.80
2017-07-02T16:05:52.032Z,23.30
2017-07-02T16:08:19.667Z,23.40
2017-07-02T16:10:47.276Z,23.40
2017-07-02T16:13:15.636Z,23.10
2017-07-02T16:15:43.229Z,23.10
2017-07-02T16:18:10.781Z,22.80
2017-07-02T16:20:38.358Z,22.20
2017-07-02T16:23:05.941Z,22.20
2017-07-02T16:25:34.297Z,21.70
2017-07-02T16:28:01.860Z,21.70
2017-07-02T16:30:29.481Z,21.70
2017-07-02T16:32:57.070Z,21.60
2017-07-02T16:35:24.676Z,21.80
2017-07-02T16:37:53.149Z,22.10
2017-07-02T16:40:21.505Z,22.10
2017-07-02T16:42:49.114Z,22.00
2017-07-02T16:45:16.709Z,21.80
2017-07-02T16:47:44.301Z,21.60
2017-07-02T16:50:11.887Z,21.30
2017-07-02T16:52:39.478Z,21.20
2017-07-02T16:55:07.093Z,21.00
2017-07-02T16:57:34.909Z,20.80
2017-07-02T17:00:02.498Z,20.70
2017-07-02T17:02:30.076Z,20.70
2017-07-02T17:04:57.646Z,20.60
2017-07-02T17:07:26.144Z,20.30
2017-07-02T17:09:54.489Z,20.30
2017-07-02T17:12:22.129Z,20.30
2017-07-02T17:14:49.885Z,20.50
2017-07-02T17:17:17.460Z,20.70
2017-07-02T17:19:45.158Z,20.80
2017-07-02T17:22:12.747Z,20.80
2017-07-02T17:24:40.343Z,21.00
2017-07-02T17:27:07.922Z,21.20
2017-07-02T17:29:35.720Z,21.30
2017-07-02T17:32:03.331Z,21.30
2017-07-02T17:34:30.920Z,21.20
2017-07-02T17:36:58.658Z,21.40
2017-07-02T17:39:26.229Z,21.50
2017-07-02T17:41:53.829Z,21.50
2017-07-02T17:44:21.525Z,21.50
2017-07-02T17:46:49.133Z,21.40
2017-07-02T17:49:17.499Z,20.90
2017-07-02T17:51:45.861Z,20.70
2017-07-02T17:54:13.436Z,20.70
2017-07-02T17:56:41.038Z,20.60
2017-07-02T17:59:08.634Z,20.40
2017-07-02T18:01:36.216Z,20.20
2017-07-02T18:04:03.806Z,20.00
2017-07-02T18:06:32.179Z,20.00
2017-07-02T18:08:59.859Z,20.00
2017-07-02T18:11:27.470Z,20.20
2017-07-02T18:13:55.063Z,20.30
2017-07-02T18:16:22.669Z,20.40
2017-07-02T18:18:50.284Z,20.30
2017-07-02T18:21:17.868Z,20.30
2017-07-02T18:23:45.445Z,20.10
2017-07-02T18:26:13.158Z,20.00
2017-07-02T18:28:40.732Z,20.00
2017-07-02T18:31:08.298Z,19.90
2017-07-02T18:33:35.878Z,19.80
2017-07-02T18:36:04.234Z,19.60
2017-07-02T18:38:31.851Z,19.60
2017-07-02T18:40:59.449Z,19.50
2017-07-02T18:43:27.029Z,19.40
2017-07-02T18:45:54.670Z,19.30
2017-07-02T18:48:22.302Z,19.20
2017-07-02T18:50:49.877Z,19.10
2017-07-02T18:53:17.477Z,18.80
2017-07-02T18:55:45.073Z,18.70
2017-07-02T18:58:12.666Z,18.60
2017-07-02T19:00:40.307Z,18.60
2017-07-02T19:03:07.915Z,18.60
2017-07-02T19:05:35.645Z,18.60
2017-07-02T19:08:03.200Z,18.70
2017-07-02T19:10:30.839Z,18.80
2017-07-02T19:12:59.273Z,18.80
2017-07-02T19:15:26.847Z,18.70
2017-07-02T19:17:54.446Z,18.60
2017-07-02T19:20:22.028Z,18.40
2017-07-02T19:22:49.638Z,18.20
2017-07-02T19:25:17.382Z,18.00
2017-07-02T19:27:45.139Z,17.90
2017-07-02T19:30:12.799Z,17.70
2017-07-02T19:32:40.488Z,17.50
2017-07-02T19:35:08.115Z,17.40
2017-07-02T19:37:35.791Z,17.30
2017-07-02T19:40:03.394Z,17.30
2017-07-02T19:42:30.988Z,17.30
2017-07-02T19:44:58.607Z,17.20
2017-07-02T19:47:26.187Z,17.10
2017-07-02T19:49:53.804Z,17.10
2017-07-02T19:52:21.388Z,16.90
2017-07-02T19:54:48.976Z,16.90
2017-07-02T19:57:16.648Z,16.80
2017-07-02T19:59:45.731Z,16.90
2017-07-02T20:02:13.291Z,16.90
2017-07-02T20:04:40.878Z,16.90
2017-07-02T20:07:08.471Z,16.90
2017-07-02T20:09:36.060Z,16.90
2017-07-02T20:12:03.916Z,16.90
2017-07-02T20:14:31.606Z,16.80
2017-07-02T20:16:59.178Z,16.70
2017-07-02T20:19:26.836Z,16.50
2017-07-02T20:21:54.425Z,16.40
2017-07-02T20:24:22.872Z,16.10
2017-07-02T20:26:50.458Z,16.10
2017-07-02T20:29:18.789Z,15.90
2017-07-02T20:31:46.354Z,15.90
2017-07-02T20:34:28.541Z,15.80
2017-07-02T20:36:56.191Z,15.70
2017-07-02T20:39:24.551Z,15.40
2017-07-02T20:41:52.251Z,15.40
2017-07-02T20:44:19.879Z,15.30
2017-07-02T20:46:47.484Z,15.20
2017-07-02T20:49:15.056Z,15.10
2017-07-02T20:51:43.748Z,14.90
2017-07-02T20:54:11.405Z,14.70
2017-07-02T20:56:39.448Z,14.50
2017-07-02T20:59:07.015Z,14.30
2017-07-02T21:01:35.422Z,14.10
2017-07-02T21:04:03.013Z,14.10
2017-07-02T21:06:30.574Z,14.00
2017-07-02T21:08:58.373Z,14.00
2017-07-02T21:11:26.846Z,13.80
2017-07-02T21:13:55.237Z,13.90
2017-07-02T21:16:23.614Z,13.80
2017-07-02T21:18:52.012Z,13.70
2017-07-02T21:21:19.772Z,13.70
2017-07-02T21:23:48.307Z,13.50
2017-07-02T21:26:15.890Z,13.50
2017-07-02T21:28:43.635Z,13.40
2017-07-02T21:31:11.227Z,13.30
2017-07-02T21:33:39.007Z,13.20
2017-07-02T21:36:07.378Z,13.00
2017-07-02T21:38:36.012Z,13.00
2017-07-02T21:41:03.895Z,13.00
2017-07-02T21:43:31.485Z,12.90
2017-07-02T21:45:59.079Z,12.80
2017-07-02T21:48:26.701Z,12.70
2017-07-02T21:50:54.288Z,12.70
2017-07-02T21:53:22.668Z,12.50
2017-07-02T21:55:51.015Z,12.50
2017-07-02T21:58:18.765Z,12.50
2017-07-02T22:00:46.426Z,12.50
2017-07-02T22:03:14.367Z,12.40
2017-07-02T22:05:42.025Z,12.40
2017-07-02T22:08:09.705Z,12.40
2017-07-02T22:10:37.305Z,12.30
2017-07-02T22:13:05.504Z,12.30
2017-07-02T22:15:33.103Z,12.30
2017-07-02T22:18:00.687Z,12.30
2017-07-02T22:20:28.395Z,12.20
2017-07-02T22:22:55.977Z,12.20
2017-07-02T22:25:23.547Z,12.10
2017-07-02T22:27:51.195Z,12.10
2017-07-02T22:30:19.678Z,12.00
2017-07-02T22:32:47.996Z,12.00
2017-07-02T22:35:15.576Z,12.00
2017-07-02T22:37:43.302Z,11.90
2017-07-02T22:40:10.936Z,11.80
2017-07-02T22:42:39.322Z,11.70
2017-07-02T22:45:08.259Z,11.70
2017-07-02T22:47:35.886Z,11.60
2017-07-02T22:50:04.224Z,11.60
2017-07-02T22:52:31.841Z,11.60
2017-07-02T22:54:59.629Z,11.60
2017-07-02T22:57:27.202Z,11.60
2017-07-02T22:59:54.775Z,11.60
2017-07-02T23:02:22.373Z,11.50
2017-07-02T23:04:50.820Z,11.40
2017-07-02T23:07:18.374Z,11.40
2017-07-02T23:09:45.963Z,11.40
2017-07-02T23:12:13.567Z,11.30
2017-07-02T23:14:41.145Z,11.30
2017-07-02T23:17:08.724Z,11.30
2017-07-02T23:19:36.316Z,11.20
2017-07-02T23:22:04.651Z,11.10
2017-07-02T23:24:32.221Z,11.10
2017-07-02T23:26:59.975Z,11.10
2017-07-02T23:29:27.544Z,11.10
2017-07-02T23:31:55.128Z,11.00
2017-07-02T23:34:22.701Z,10.90
2017-07-02T23:36:50.290Z,10.90
2017-07-02T23:39:17.874Z,10.90
2017-07-02T23:41:45.435Z,10.80
2017-07-02T23:44:13.136Z,10.70
2017-07-02T23:46:40.702Z,10.70
2017-07-02T23:49:08.298Z,10.70
2017-07-02T23:51:35.882Z,10.60
2017-07-02T23:54:03.440Z,10.60
2017-07-02T23:56:31.006Z,10.50
2017-07-02T23:58:58.586Z,10.60
